Time;durP1;ratioP1;P1;durP2;ratioP2;P2;SDS_P1;SDS_P2;PMS_P1;PMS_P2;Temp;Humidity;BMP_temperature;BMP_pressure;BME280_temperature;BME280_humidity;BME280_pressure;Samples;Min_cycle;Max_cycle;Signal;HPM_P1;HPM_P2
2022/05/10 00:00:10;;;;;;;;;;;18.30;92.80;18.60;100084.00;;;;342076;28;91200;-89
2022/05/10 00:00:22;;;;;;;;;;;18.40;92.90;18.60;100085.00;;;;338761;28;85900;-89
2022/05/10 00:00:33;;;;;;;;;;;18.30;93.10;18.60;100086.00;;;;337616;28;89779;-89
2022/05/10 00:00:45;;;;;;;;;;;18.30;92.90;18.60;100084.00;;;;341228;28;87882;-88
2022/05/10 00:00:57;;;;;;;;;;;18.30;92.80;18.60;100086.00;;;;338860;28;91083;-89
2022/05/10 00:01:17;;;;;;;;;;;18.30;92.90;18.60;100084.00;;;;338834;28;87857;-89
2022/05/10 00:01:31;;;;;;;;;;;18.30;92.80;18.50;100081.00;;;;340348;28;87337;-89
2022/05/10 00:01:43;;;;;;;;;;;18.30;93.10;18.50;100083.00;;;;338766;28;87008;-89
2022/05/10 00:01:55;;;;;;;;;;;18.30;92.80;18.50;100079.00;;;;345980;28;90777;-89
2022/05/10 00:02:09;;;;;;;;;;;18.30;92.70;18.50;100083.00;;;;345825;28;86059;-89
2022/05/10 00:02:21;;;;;;;;;;;18.30;92.80;18.50;100086.00;;;;337846;28;90014;-89
2022/05/10 00:02:33;;;;;;;;;;;18.30;93.00;18.50;100085.00;;;;338903;28;86601;-89
2022/05/10 00:02:50;;;;;;;;;;;18.30;93.00;18.50;100083.00;;;;343065;28;90884;-89
2022/05/10 00:03:03;;;;;;;;;;;18.30;93.20;18.50;100084.00;;;;342921;28;87097;-89
2022/05/10 00:03:14;;;;;;;;;;;18.20;93.00;18.60;100087.00;;;;337663;28;90783;-89
2022/05/10 00:03:37;;;;;;;;;;;18.20;92.80;18.60;100090.00;;;;341487;28;86230;-89
2022/05/10 00:03:49;;;;;;;;;;;18.30;92.80;18.70;100092.00;;;;338879;28;89303;-88
2022/05/10 00:04:01;;;;;;;;;;;18.30;92.90;18.70;100090.00;;;;335898;28;87870;-88
2022/05/10 00:04:13;;;;;;;;;;;18.30;93.10;18.70;100084.00;;;;344646;28;89563;-89
2022/05/10 00:04:25;;;;;;;;;;;18.30;93.20;18.70;100088.00;;;;345966;28;86805;-89
2022/05/10 00:04:36;;;;;;;;;;;18.30;93.10;18.60;100092.00;;;;340412;28;89874;-89
2022/05/10 00:04:49;;;;;;;;;;;18.30;93.20;18.50;100084.00;;;;340105;28;86854;-89
2022/05/10 00:05:02;;;;;;;;;;;18.30;93.10;18.50;100091.00;;;;340332;28;90814;-89
2022/05/10 00:05:14;;;;;;;;;;;18.30;93.50;18.50;100090.00;;;;338821;28;86973;-89
2022/05/10 00:05:32;;;;;;;;;;;18.30;93.10;18.50;100087.00;;;;338965;28;90457;-89
2022/05/10 00:05:44;;;;;;;;;;;18.30;92.90;18.50;100084.00;;;;340179;28;86314;-89
2022/05/10 00:05:56;;;;;;;;;;;18.30;93.00;18.50;100087.00;;;;338572;28;89080;-89
2022/05/10 00:06:08;;;;;;;;;;;18.20;93.20;18.40;100086.00;;;;343270;28;88537;-89
2022/05/10 00:06:19;;;;;;;;;;;18.20;93.20;18.30;100081.00;;;;346771;28;89943;-89
2022/05/10 00:06:39;;;;;;;;;;;18.20;93.40;18.40;100088.00;;;;337557;28;86814;-89
2022/05/10 00:06:51;;;;;;;;;;;18.30;93.30;18.40;100088.00;;;;348557;27;91176;-89
2022/05/10 00:07:03;;;;;;;;;;;18.20;93.20;18.50;100082.00;;;;345848;28;87880;-89
2022/05/10 00:07:16;;;;;;;;;;;18.20;93.10;18.50;100087.00;;;;339126;28;90565;-89
2022/05/10 00:07:28;;;;;;;;;;;18.20;93.10;18.50;100085.00;;;;340301;28;86726;-89
2022/05/10 00:07:40;;;;;;;;;;;18.20;93.20;18.50;100085.00;;;;341817;28;89600;-89
2022/05/10 00:07:52;;;;;;;;;;;18.20;93.10;18.40;100087.00;;;;336270;28;88289;-89
2022/05/10 00:08:06;;;;;;;;;;;18.20;93.10;18.40;100088.00;;;;338988;28;90734;-89
2022/05/10 00:08:17;;;;;;;;;;;18.20;93.40;18.40;100083.00;;;;338966;28;85961;-89
2022/05/10 00:08:29;;;;;;;;;;;18.20;93.30;18.40;100083.00;;;;340323;28;89500;-89
2022/05/10 00:08:41;;;;;;;;;;;18.20;93.20;18.40;100083.00;;;;338791;28;87908;-89
2022/05/10 00:08:53;;;;;;;;;;;18.20;93.20;18.30;100085.00;;;;340508;28;91197;-89
2022/05/10 00:09:05;;;;;;;;;;;18.20;93.30;18.30;100085.00;;;;345439;28;86893;-89
2022/05/10 00:09:19;;;;;;;;;;;18.20;93.40;18.20;100079.00;;;;338976;28;90880;-89
2022/05/10 00:09:31;;;;;;;;;;;18.20;93.40;18.30;100085.00;;;;337487;28;87938;-89
2022/05/10 00:09:43;;;;;;;;;;;18.10;93.40;18.30;100080.00;;;;337838;28;90848;-89
2022/05/10 00:09:54;;;;;;;;;;;18.10;93.20;18.40;100090.00;;;;337475;28;87781;-89
2022/05/10 00:10:08;;;;;;;;;;;18.10;93.30;18.30;100081.00;;;;339023;28;88438;-89
2022/05/10 00:10:20;;;;;;;;;;;18.10;93.50;18.20;100087.00;;;;348564;27;86837;-89
2022/05/10 00:10:34;;;;;;;;;;;18.10;93.50;18.30;100082.00;;;;345977;28;90743;-89
2022/05/10 00:10:46;;;;;;;;;;;18.10;93.60;18.40;100079.00;;;;340131;28;87817;-89
2022/05/10 00:10:57;;;;;;;;;;;18.10;93.10;18.50;100079.00;;;;337813;28;90273;-89
2022/05/10 00:11:09;;;;;;;;;;;18.10;93.20;18.50;100080.00;;;;337602;28;87184;-89
2022/05/10 00:11:21;;;;;;;;;;;18.10;93.20;18.40;100081.00;;;;339021;28;90234;-89
2022/05/10 00:11:33;;;;;;;;;;;18.10;93.40;18.40;100083.00;;;;337673;28;86869;-89
2022/05/10 00:11:45;;;;;;;;;;;18.10;93.40;18.40;100085.00;;;;338961;28;90495;-89
2022/05/10 00:11:57;;;;;;;;;;;18.10;93.50;18.30;100089.00;;;;345302;28;86363;-89
2022/05/10 00:12:09;;;;;;;;;;;18.10;93.50;18.30;100085.00;;;;343035;28;89139;-89
2022/05/10 00:12:21;;;;;;;;;;;18.10;93.60;18.30;100081.00;;;;338712;28;88125;-89
2022/05/10 00:12:33;;;;;;;;;;;18.10;93.40;18.30;100074.00;;;;340441;28;89758;-89
2022/05/10 00:12:45;;;;;;;;;;;18.10;93.40;18.30;100091.00;;;;340174;28;88189;-89
2022/05/10 00:12:57;;;;;;;;;;;18.10;93.20;18.40;100080.00;;;;340102;28;91233;-89
2022/05/10 00:13:09;;;;;;;;;;;18.10;93.30;18.50;100077.00;;;;347222;28;86943;-89
2022/05/10 00:13:21;;;;;;;;;;;18.10;93.30;18.50;100070.00;;;;347426;28;90936;-89
2022/05/10 00:13:33;;;;;;;;;;;18.10;93.30;18.40;100078.00;;;;338855;28;86921;-89
2022/05/10 00:13:45;;;;;;;;;;;18.10;93.30;18.40;100080.00;;;;339028;28;90809;-89
2022/05/10 00:13:56;;;;;;;;;;;18.10;93.30;18.40;100078.00;;;;338777;28;88537;-89
2022/05/10 00:14:08;;;;;;;;;;;18.10;93.20;18.30;100083.00;;;;341735;28;89021;-89
2022/05/10 00:14:20;;;;;;;;;;;18.10;93.30;18.30;100088.00;;;;340316;28;86778;-89
2022/05/10 00:14:32;;;;;;;;;;;18.10;93.50;18.20;100089.00;;;;340583;28;89688;-89
2022/05/10 00:14:44;;;;;;;;;;;18.10;93.60;18.30;100090.00;;;;342805;28;86344;-89
2022/05/10 00:14:56;;;;;;;;;;;18.10;93.50;18.30;100088.00;;;;343466;27;89766;-89
2022/05/10 00:15:08;;;;;;;;;;;18.00;93.20;18.30;100076.00;;;;344256;28;86791;-89
2022/05/10 00:15:20;;;;;;;;;;;18.00;93.10;18.30;100085.00;;;;344361;28;89619;-89
2022/05/10 00:15:32;;;;;;;;;;;18.00;93.20;18.30;100086.00;;;;337297;28;88162;-89
2022/05/10 00:15:44;;;;;;;;;;;18.00;93.40;18.40;100081.00;;;;336488;28;88370;-89
2022/05/10 00:15:56;;;;;;;;;;;18.00;93.50;18.30;100088.00;;;;340084;28;87670;-89
2022/05/10 00:16:09;;;;;;;;;;;18.10;93.40;18.30;100087.00;;;;337679;28;90400;-89
2022/05/10 00:16:21;;;;;;;;;;;18.10;93.40;18.20;100085.00;;;;338780;28;88181;-89
2022/05/10 00:16:35;;;;;;;;;;;18.10;93.50;18.20;100087.00;;;;340364;28;91225;-89
2022/05/10 00:16:51;;;;;;;;;;;18.00;93.50;18.40;100083.00;;;;338771;28;87718;-89
2022/05/10 00:17:03;;;;;;;;;;;18.00;93.50;18.40;100089.00;;;;337830;28;90978;-89
2022/05/10 00:17:27;;;;;;;;;;;18.10;93.50;18.30;100093.00;;;;338963;28;87140;-89
2022/05/10 00:17:40;;;;;;;;;;;18.00;93.60;18.20;100087.00;;;;338632;28;90894;-89
2022/05/10 00:17:52;;;;;;;;;;;18.10;93.80;18.20;100089.00;;;;339223;28;87129;-89
2022/05/10 00:18:04;;;;;;;;;;;18.00;93.80;18.20;100094.00;;;;344046;28;90178;-88
2022/05/10 00:18:16;;;;;;;;;;;18.00;93.70;18.30;100081.00;;;;348762;28;85325;-88
2022/05/10 00:18:28;;;;;;;;;;;18.00;93.60;18.30;100085.00;;;;341134;28;89178;-89
2022/05/10 00:18:40;;;;;;;;;;;18.00;93.60;18.40;100092.00;;;;341595;28;86951;-88
2022/05/10 00:18:51;;;;;;;;;;;18.00;93.60;18.50;100084.00;;;;340499;28;89408;-88
2022/05/10 00:19:03;;;;;;;;;;;18.00;93.70;18.50;100079.00;;;;338990;28;87465;-89
2022/05/10 00:19:15;;;;;;;;;;;18.00;93.70;18.40;100085.00;;;;340586;28;90061;-89
2022/05/10 00:19:30;;;;;;;;;;;18.10;93.60;18.40;100090.00;;;;341588;28;86911;-88
2022/05/10 00:19:42;;;;;;;;;;;18.00;93.60;18.30;100087.00;;;;340694;28;86904;-89
2022/05/10 00:19:54;;;;;;;;;;;18.10;93.80;18.20;100091.00;;;;340348;28;87146;-89
2022/05/10 00:20:08;;;;;;;;;;;18.10;93.90;18.20;100089.00;;;;340515;28;89514;-89
2022/05/10 00:20:22;;;;;;;;;;;18.00;93.80;18.40;100086.00;;;;348723;28;86763;-89
2022/05/10 00:20:34;;;;;;;;;;;18.00;93.70;18.30;100087.00;;;;344858;28;89290;-90
2022/05/10 00:20:46;;;;;;;;;;;18.00;93.60;18.30;100084.00;;;;346094;28;86108;-88
2022/05/10 00:20:57;;;;;;;;;;;18.00;93.50;18.20;100085.00;;;;347143;28;89893;-89
2022/05/10 00:21:10;;;;;;;;;;;18.00;93.70;18.30;100083.00;;;;342766;28;86865;-88
2022/05/10 00:21:23;;;;;;;;;;;18.00;93.50;18.20;100089.00;;;;340455;28;89802;-89
2022/05/10 00:21:34;;;;;;;;;;;18.00;93.70;18.30;100085.00;;;;339110;28;86231;-88
2022/05/10 00:21:47;;;;;;;;;;;18.00;93.80;18.30;100094.00;;;;340588;28;89580;-91
2022/05/10 00:21:59;;;;;;;;;;;18.00;93.80;18.20;100078.00;;;;339979;28;87748;-88
2022/05/10 00:22:10;;;;;;;;;;;18.00;93.90;18.30;100087.00;;;;340213;28;90516;-89
2022/05/10 00:22:22;;;;;;;;;;;18.00;93.90;18.30;100083.00;;;;341566;28;86952;-89
2022/05/10 00:22:34;;;;;;;;;;;18.00;93.80;18.40;100069.00;;;;347592;28;89198;-89
2022/05/10 00:22:46;;;;;;;;;;;18.00;93.80;18.40;100087.00;;;;347240;28;86840;-89
2022/05/10 00:22:57;;;;;;;;;;;18.00;93.80;18.30;100080.00;;;;340368;28;90438;-88
2022/05/10 00:23:09;;;;;;;;;;;18.00;93.90;18.30;100084.00;;;;348911;28;85961;-88
2022/05/10 00:23:21;;;;;;;;;;;18.00;93.90;18.10;100083.00;;;;347497;28;90763;-89
2022/05/10 00:23:33;;;;;;;;;;;18.00;94.00;18.10;100086.00;;;;341576;28;87313;-89
2022/05/10 00:23:45;;;;;;;;;;;18.00;94.10;18.20;100082.00;;;;341869;28;89972;-89
2022/05/10 00:23:57;;;;;;;;;;;18.00;94.00;18.30;100080.00;;;;342327;28;87411;-88
2022/05/10 00:24:08;;;;;;;;;;;18.00;93.80;18.30;100083.00;;;;343669;28;87286;-89
2022/05/10 00:24:20;;;;;;;;;;;18.00;93.80;18.30;100082.00;;;;347351;28;87273;-90
2022/05/10 00:24:32;;;;;;;;;;;18.00;93.90;18.10;100076.00;;;;347439;28;89931;-89
2022/05/10 00:24:44;;;;;;;;;;;18.00;94.00;18.10;100078.00;;;;342922;28;87015;-88
2022/05/10 00:24:56;;;;;;;;;;;18.00;94.10;18.10;100086.00;;;;341340;28;89331;-90
2022/05/10 00:25:09;;;;;;;;;;;18.00;94.00;18.20;100089.00;;;;340280;28;86606;-89
2022/05/10 00:25:24;;;;;;;;;;;18.00;94.00;18.00;100078.00;;;;339074;28;89758;-88
2022/05/10 00:25:35;;;;;;;;;;;18.00;94.00;17.90;100080.00;;;;338835;28;86821;-89
2022/05/10 00:25:47;;;;;;;;;;;18.00;94.10;17.80;100081.00;;;;337780;28;91233;-89
2022/05/10 00:25:59;;;;;;;;;;;17.90;94.10;17.70;100083.00;;;;338937;28;88265;-89
2022/05/10 00:26:11;;;;;;;;;;;17.90;94.20;17.70;100090.00;;;;339274;28;89336;-89
2022/05/10 00:26:23;;;;;;;;;;;17.90;94.20;17.70;100085.00;;;;341660;28;87182;-89
2022/05/10 00:26:34;;;;;;;;;;;17.90;94.20;17.70;100085.00;;;;339296;28;88375;-89
2022/05/10 00:26:48;;;;;;;;;;;17.90;94.30;17.80;100083.00;;;;340128;28;88280;-90
2022/05/10 00:27:00;;;;;;;;;;;17.90;94.50;17.70;100081.00;;;;341496;28;89837;-89
2022/05/10 00:27:12;;;;;;;;;;;17.90;94.20;17.70;100078.00;;;;345337;28;86108;-88
2022/05/10 00:27:24;;;;;;;;;;;17.90;94.20;17.90;100068.00;;;;344073;28;87047;-90
2022/05/10 00:27:36;;;;;;;;;;;17.90;94.20;18.00;100070.00;;;;340256;28;86962;-89
2022/05/10 00:27:47;;;;;;;;;;;17.90;94.10;17.90;100068.00;;;;339197;28;90171;-90
2022/05/10 00:28:00;;;;;;;;;;;17.80;94.10;18.00;100075.00;;;;341601;28;86774;-88
2022/05/10 00:28:12;;;;;;;;;;;17.90;94.10;18.00;100076.00;;;;347459;28;91032;-88
2022/05/10 00:28:23;;;;;;;;;;;17.90;94.30;17.90;100078.00;;;;340327;28;86069;-88
2022/05/10 00:28:35;;;;;;;;;;;17.80;94.00;18.00;100068.00;;;;340534;28;89102;-89
2022/05/10 00:28:47;;;;;;;;;;;17.80;93.90;18.10;100068.00;;;;338836;28;86803;-89
2022/05/10 00:29:00;;;;;;;;;;;17.80;93.90;18.10;100082.00;;;;340388;28;89499;-89
2022/05/10 00:29:12;;;;;;;;;;;17.90;94.00;18.00;100073.00;;;;341528;28;86866;-88
2022/05/10 00:29:23;;;;;;;;;;;17.90;94.30;17.90;100073.00;;;;343176;28;87499;-88
2022/05/10 00:29:35;;;;;;;;;;;17.80;94.40;17.90;100067.00;;;;340321;28;86835;-90
2022/05/10 00:29:47;;;;;;;;;;;17.80;94.30;17.90;100076.00;;;;340323;28;89785;-90
2022/05/10 00:30:00;;;;;;;;;;;17.80;94.10;17.90;100076.00;;;;343878;28;86685;-89
2022/05/10 00:30:12;;;;;;;;;;;17.80;94.00;17.90;100074.00;;;;341049;28;89473;-89
2022/05/10 00:30:24;;;;;;;;;;;17.80;93.90;17.90;100079.00;;;;342951;28;86848;-89
2022/05/10 00:30:37;;;;;;;;;;;17.80;94.10;17.90;100073.00;;;;347434;28;88832;-88
2022/05/10 00:30:48;;;;;;;;;;;17.80;94.00;17.90;100068.00;;;;338859;28;86865;-88
2022/05/10 00:31:00;;;;;;;;;;;17.80;94.00;17.90;100068.00;;;;341717;28;89621;-89
2022/05/10 00:31:12;;;;;;;;;;;17.80;93.90;17.90;100065.00;;;;339965;28;88249;-89
2022/05/10 00:31:24;;;;;;;;;;;17.80;94.00;17.90;100074.00;;;;340104;28;89632;-88
2022/05/10 00:31:36;;;;;;;;;;;17.80;94.20;17.80;100069.00;;;;340009;28;87007;-89
2022/05/10 00:31:48;;;;;;;;;;;17.80;94.50;17.80;100078.00;;;;337479;28;89798;-89
2022/05/10 00:31:59;;;;;;;;;;;17.70;94.40;17.80;100077.00;;;;341455;28;86874;-88
2022/05/10 00:32:11;;;;;;;;;;;17.70;94.30;17.80;100074.00;;;;342821;28;89496;-89
2022/05/10 00:32:24;;;;;;;;;;;17.70;94.10;17.90;100078.00;;;;341360;28;86888;-89
2022/05/10 00:32:36;;;;;;;;;;;17.70;94.10;17.90;100073.00;;;;342985;28;90008;-89
2022/05/10 00:32:48;;;;;;;;;;;17.70;94.00;17.90;100069.00;;;;339857;28;86709;-89
2022/05/10 00:33:00;;;;;;;;;;;17.70;94.20;17.90;100079.00;;;;348129;28;89442;-89
2022/05/10 00:33:15;;;;;;;;;;;17.70;94.30;17.80;100073.00;;;;345976;28;86940;-89
2022/05/10 00:33:28;;;;;;;;;;;17.70;94.30;17.70;100069.00;;;;341522;28;89173;-89
2022/05/10 00:33:40;;;;;;;;;;;17.70;94.50;17.90;100070.00;;;;340043;28;86942;-89
2022/05/10 00:33:52;;;;;;;;;;;17.70;94.30;17.90;100073.00;;;;342707;28;87586;-89
2022/05/10 00:34:03;;;;;;;;;;;17.70;94.20;17.90;100073.00;;;;340045;28;86496;-89
2022/05/10 00:34:16;;;;;;;;;;;17.70;94.10;17.90;100069.00;;;;338849;28;90822;-89
2022/05/10 00:34:28;;;;;;;;;;;17.70;94.30;17.90;100077.00;;;;340195;28;85187;-88
2022/05/10 00:34:40;;;;;;;;;;;17.70;94.40;17.80;100073.00;;;;341551;28;89094;-89
2022/05/10 00:34:52;;;;;;;;;;;17.70;94.40;17.90;100076.00;;;;338757;28;86777;-89
2022/05/10 00:35:05;;;;;;;;;;;17.70;94.40;18.00;100068.00;;;;338881;28;89454;-89
2022/05/10 00:35:24;;;;;;;;;;;17.70;94.30;18.10;100069.00;;;;338619;28;86032;-89
2022/05/10 00:35:36;;;;;;;;;;;17.70;94.30;18.10;100074.00;;;;340819;28;90963;-89
2022/05/10 00:35:48;;;;;;;;;;;17.70;94.30;18.10;100075.00;;;;344475;28;87118;-89
2022/05/10 00:35:59;;;;;;;;;;;17.70;94.20;18.00;100060.00;;;;337228;28;90819;-89
2022/05/10 00:36:11;;;;;;;;;;;17.70;94.20;18.00;100073.00;;;;345670;28;88193;-89
2022/05/10 00:36:23;;;;;;;;;;;17.70;94.10;17.90;100070.00;;;;344285;28;88271;-89
2022/05/10 00:36:35;;;;;;;;;;;17.70;94.60;17.90;100067.00;;;;337586;28;88064;-89
2022/05/10 00:36:47;;;;;;;;;;;17.70;94.40;17.80;100075.00;;;;338956;28;88307;-89
2022/05/10 00:36:59;;;;;;;;;;;17.70;94.50;17.90;100076.00;;;;342941;28;86466;-89
2022/05/10 00:37:11;;;;;;;;;;;17.70;94.40;17.90;100064.00;;;;344531;28;90703;-89
2022/05/10 00:37:23;;;;;;;;;;;17.70;94.30;17.80;100078.00;;;;338613;28;88221;-89
2022/05/10 00:37:34;;;;;;;;;;;17.70;94.70;17.90;100080.00;;;;340320;28;87047;-89
2022/05/10 00:37:48;;;;;;;;;;;17.60;94.50;18.00;100067.00;;;;345739;28;86744;-89
2022/05/10 00:38:01;;;;;;;;;;;17.70;94.40;18.00;100068.00;;;;345904;28;88582;-88
2022/05/10 00:38:12;;;;;;;;;;;17.70;94.40;18.00;100068.00;;;;335991;28;87608;-89
2022/05/10 00:38:31;;;;;;;;;;;17.70;94.40;18.00;100077.00;;;;338910;28;90812;-89
2022/05/10 00:38:43;;;;;;;;;;;17.70;94.50;17.90;100073.00;;;;337333;28;88210;-89
2022/05/10 00:38:55;;;;;;;;;;;17.70;94.40;17.80;100073.00;;;;338118;28;89893;-89
2022/05/10 00:39:06;;;;;;;;;;;17.70;94.50;17.90;100076.00;;;;340102;28;88568;-89
2022/05/10 00:39:18;;;;;;;;;;;17.70;94.50;18.00;100074.00;;;;338870;28;87439;-89
2022/05/10 00:39:30;;;;;;;;;;;17.70;94.50;18.00;100067.00;;;;337322;28;87114;-89
2022/05/10 00:39:41;;;;;;;;;;;17.70;94.40;17.90;100061.00;;;;337537;28;91339;-89
2022/05/10 00:39:53;;;;;;;;;;;17.70;94.50;18.00;100075.00;;;;337697;28;86905;-89
2022/05/10 00:40:06;;;;;;;;;;;17.70;94.50;18.10;100066.00;;;;337403;28;90838;-89
2022/05/10 00:40:25;;;;;;;;;;;17.70;94.50;18.10;100069.00;;;;337492;28;86892;-89
2022/05/10 00:40:37;;;;;;;;;;;17.70;94.50;18.00;100074.00;;;;337551;28;90689;-89
2022/05/10 00:40:48;;;;;;;;;;;17.70;94.40;17.90;100070.00;;;;337334;28;89203;-89
2022/05/10 00:41:05;;;;;;;;;;;17.70;94.50;17.90;100067.00;;;;340298;28;88901;-89
2022/05/10 00:41:17;;;;;;;;;;;17.70;94.40;17.80;100077.00;;;;340022;28;87855;-89
2022/05/10 00:41:48;;;;;;;;;;;17.70;94.50;17.70;100069.00;;;;338915;28;90778;-89
2022/05/10 00:42:07;;;;;;;;;;;17.70;94.60;17.90;100074.00;;;;341804;28;87194;-89
2022/05/10 00:42:24;;;;;;;;;;;17.60;94.40;17.80;100066.00;;;;341389;28;90559;-89
2022/05/10 00:43:11;;;;;;;;;;;17.60;94.60;17.80;100076.00;;;;338725;28;88064;-89
2022/05/10 00:43:31;;;;;;;;;;;17.70;94.50;17.90;100067.00;;;;340175;28;90960;-89
2022/05/10 00:43:45;;;;;;;;;;;17.60;94.70;17.90;100066.00;;;;342614;28;88230;-89
2022/05/10 00:44:04;;;;;;;;;;;17.60;94.60;17.90;100069.00;;;;340387;28;89958;-89
2022/05/10 00:44:18;;;;;;;;;;;17.60;94.70;17.80;100068.00;;;;338756;28;87723;-89
2022/05/10 00:44:42;;;;;;;;;;;17.60;94.60;17.80;100067.00;;;;338689;28;88810;-88
2022/05/10 00:44:58;;;;;;;;;;;17.60;94.40;17.60;100065.00;;;;339629;28;88109;-89
2022/05/10 00:45:15;;;;;;;;;;;17.60;94.70;17.50;100065.00;;;;344002;28;91087;-89
2022/05/10 00:45:42;;;;;;;;;;;17.60;94.80;17.50;100070.00;;;;342709;28;86883;-89
2022/05/10 00:46:02;;;;;;;;;;;17.60;94.90;17.60;100064.00;;;;338897;28;88177;-89
2022/05/10 00:46:22;;;;;;;;;;;17.60;94.90;17.60;100064.00;;;;337431;28;87436;-89
2022/05/10 00:46:38;;;;;;;;;;;17.50;94.90;17.40;100064.00;;;;338912;28;90986;-89
2022/05/10 00:47:05;;;;;;;;;;;17.50;95.10;17.50;100073.00;;;;341079;27;88055;-89
2022/05/10 00:47:37;;;;;;;;;;;17.50;95.00;17.60;100065.00;;;;338851;28;90902;-89
2022/05/10 00:47:55;;;;;;;;;;;17.50;94.90;17.50;100063.00;;;;338564;28;87147;-88
2022/05/10 00:48:16;;;;;;;;;;;17.50;95.00;17.40;100064.00;;;;345224;27;90729;-89
2022/05/10 00:48:33;;;;;;;;;;;17.40;95.00;17.50;100073.00;;;;339958;28;86821;-89
2022/05/10 00:48:50;;;;;;;;;;;17.40;95.10;17.50;100059.00;;;;337117;28;90273;-89
2022/05/10 00:49:09;;;;;;;;;;;17.40;94.90;17.50;100069.00;;;;337412;28;88250;-89
2022/05/10 00:49:34;;;;;;;;;;;17.40;95.10;17.60;100075.00;;;;340171;28;91053;-89
2022/05/10 00:49:55;;;;;;;;;;;17.40;95.00;17.60;100062.00;;;;340006;28;86907;-89
2022/05/10 00:50:14;;;;;;;;;;;17.40;94.90;17.60;100067.00;;;;338872;28;90899;-89
2022/05/10 00:50:43;;;;;;;;;;;17.40;94.70;17.60;100067.00;;;;339982;28;88183;-89
2022/05/10 00:51:29;;;;;;;;;;;17.40;94.70;17.60;100067.00;;;;338222;28;90742;-89
2022/05/10 00:52:01;;;;;;;;;;;17.40;94.80;17.40;100065.00;;;;337362;28;87713;-89
2022/05/10 00:52:18;;;;;;;;;;;17.40;95.00;17.40;100068.00;;;;340271;28;89829;-89
2022/05/10 00:52:54;;;;;;;;;;;17.30;95.20;17.50;100064.00;;;;337364;28;86925;-89
2022/05/10 00:53:10;;;;;;;;;;;17.30;95.30;17.30;100062.00;;;;338938;28;89570;-89
2022/05/10 00:53:27;;;;;;;;;;;17.30;95.50;17.20;100052.00;;;;338623;28;87077;-89
2022/05/10 00:54:09;;;;;;;;;;;17.30;95.70;17.60;100067.00;;;;341483;28;90682;-89
2022/05/10 00:54:38;;;;;;;;;;;17.30;95.60;17.50;100075.00;;;;338726;28;88021;-89
2022/05/10 00:54:56;;;;;;;;;;;17.30;95.40;17.40;100069.00;;;;337484;28;89913;-89
2022/05/10 00:55:16;;;;;;;;;;;17.30;95.50;17.40;100067.00;;;;338744;28;86933;-89
2022/05/10 00:55:45;;;;;;;;;;;17.30;95.50;17.50;100060.00;;;;340277;28;88391;-89
2022/05/10 00:56:00;;;;;;;;;;;17.30;95.30;17.50;100063.00;;;;339802;28;87905;-89
2022/05/10 00:56:15;;;;;;;;;;;17.30;95.50;17.50;100058.00;;;;338942;28;90450;-89
2022/05/10 00:56:30;;;;;;;;;;;17.30;95.40;17.50;100065.00;;;;345625;28;86997;-89
2022/05/10 00:56:52;;;;;;;;;;;17.30;95.40;17.50;100061.00;;;;345698;28;90227;-89
2022/05/10 00:57:28;;;;;;;;;;;17.30;95.40;17.50;100057.00;;;;345256;28;87924;-89
2022/05/10 00:57:54;;;;;;;;;;;17.30;95.30;17.40;100061.00;;;;344414;28;88073;-89
2022/05/10 00:58:28;;;;;;;;;;;17.30;95.40;17.40;100054.00;;;;339974;28;86946;-89
2022/05/10 00:59:15;;;;;;;;;;;17.30;95.70;17.60;100067.00;;;;340290;28;88513;-89
2022/05/10 00:59:41;;;;;;;;;;;17.30;95.40;17.50;100065.00;;;;341330;28;87313;-89
2022/05/10 01:00:12;;;;;;;;;;;17.30;95.60;17.30;100070.00;;;;344133;28;91093;-89
2022/05/10 01:00:26;;;;;;;;;;;17.30;95.40;17.30;100062.00;;;;341671;28;87923;-89
2022/05/10 01:00:37;;;;;;;;;;;17.30;95.40;17.20;100055.00;;;;340621;28;89812;-89
2022/05/10 01:00:49;;;;;;;;;;;17.30;95.50;17.20;100055.00;;;;340211;28;87197;-89
2022/05/10 01:01:01;;;;;;;;;;;17.30;95.60;17.10;100057.00;;;;339250;28;91296;-89
2022/05/10 01:01:15;;;;;;;;;;;17.20;95.70;17.10;100057.00;;;;340403;28;87071;-88
2022/05/10 01:01:35;;;;;;;;;;;17.20;95.80;17.30;100062.00;;;;343276;28;90706;-88
2022/05/10 01:01:50;;;;;;;;;;;17.20;96.00;17.20;100058.00;;;;344452;28;87549;-89
2022/05/10 01:02:10;;;;;;;;;;;17.20;95.70;17.30;100054.00;;;;343241;28;87390;-88
2022/05/10 01:02:34;;;;;;;;;;;17.20;95.60;17.30;100061.00;;;;341829;28;88368;-89
2022/05/10 01:03:01;;;;;;;;;;;17.20;95.60;17.30;100058.00;;;;344596;28;90038;-89
2022/05/10 01:03:22;;;;;;;;;;;17.20;95.60;17.50;100058.00;;;;344506;28;86447;-89
2022/05/10 01:03:59;;;;;;;;;;;17.20;95.40;17.50;100060.00;;;;344728;28;89002;-89
2022/05/10 01:04:34;;;;;;;;;;;17.20;95.50;17.50;100053.00;;;;340402;28;86140;-89
2022/05/10 01:04:51;;;;;;;;;;;17.20;95.60;17.40;100058.00;;;;340422;28;90957;-89
2022/05/10 01:05:14;;;;;;;;;;;17.20;95.60;17.40;100049.00;;;;340349;28;86901;-89
2022/05/10 01:05:46;;;;;;;;;;;17.20;95.60;17.30;100057.00;;;;339151;28;90750;-89
2022/05/10 01:05:57;;;;;;;;;;;17.20;96.00;17.30;100057.00;;;;339663;28;88483;-89
2022/05/10 01:06:16;;;;;;;;;;;17.10;96.30;17.30;100055.00;;;;340407;28;90952;-89
2022/05/10 01:06:31;;;;;;;;;;;17.10;96.10;17.30;100057.00;;;;340361;28;87671;-89
2022/05/10 01:06:51;;;;;;;;;;;17.20;95.80;17.30;100060.00;;;;340515;28;89789;-89
2022/05/10 01:07:32;;;;;;;;;;;17.10;95.90;17.50;100062.00;;;;340309;28;86949;-89
2022/05/10 01:07:52;;;;;;;;;;;17.10;95.70;17.40;100057.00;;;;340504;28;89947;-89
2022/05/10 01:08:06;;;;;;;;;;;17.10;95.80;17.40;100057.00;;;;342966;28;88575;-88
2022/05/10 01:08:26;;;;;;;;;;;17.10;95.70;17.40;100052.00;;;;340707;28;90660;-89
2022/05/10 01:08:41;;;;;;;;;;;17.10;95.50;17.40;100058.00;;;;341408;28;87072;-89
2022/05/10 01:09:20;;;;;;;;;;;17.10;95.70;17.40;100057.00;;;;342690;28;91143;-89
2022/05/10 01:09:52;;;;;;;;;;;17.10;95.90;17.40;100059.00;;;;338951;28;88821;-89
2022/05/10 01:11:00;;;;;;;;;;;17.10;95.70;17.40;100058.00;;;;336490;28;90942;-89
2022/05/10 01:11:15;;;;;;;;;;;17.10;95.60;17.30;100053.00;;;;337521;28;87461;-89
2022/05/10 01:11:30;;;;;;;;;;;17.10;96.00;17.20;100052.00;;;;337836;28;91779;-89
2022/05/10 01:12:16;;;;;;;;;;;17.10;96.10;17.20;100051.00;;;;337802;28;88521;-89
2022/05/10 01:12:49;;;;;;;;;;;17.10;96.10;17.30;100054.00;;;;353426;27;75893;-88
2022/05/10 01:13:25;;;;;;;;;;;17.10;95.90;17.10;100052.00;;;;350100;27;83330;-89
2022/05/10 01:14:08;;;;;;;;;;;17.10;95.90;17.00;100053.00;;;;349969;27;84555;-88
2022/05/10 01:14:23;;;;;;;;;;;17.00;96.70;17.20;100047.00;;;;345863;28;82543;-88
2022/05/10 01:14:51;;;;;;;;;;;17.00;96.20;17.30;100055.00;;;;344309;28;85187;-88
2022/05/10 01:15:12;;;;;;;;;;;17.00;96.30;17.20;100051.00;;;;349435;27;82470;-88
2022/05/10 01:15:24;;;;;;;;;;;17.00;96.70;17.10;100048.00;;;;348464;27;84512;-89
2022/05/10 01:15:36;;;;;;;;;;;17.00;97.00;17.10;100056.00;;;;348296;27;83374;-88
2022/05/10 01:16:10;;;;;;;;;;;17.00;97.10;17.30;100049.00;;;;346890;28;85256;-89
2022/05/10 01:16:23;;;;;;;;;;;17.00;96.80;17.40;100052.00;;;;342957;28;83442;-87
2022/05/10 01:16:35;;;;;;;;;;;17.00;96.80;17.30;100057.00;;;;344357;28;85191;-88
2022/05/10 01:16:47;;;;;;;;;;;17.00;96.70;17.30;100045.00;;;;347144;28;83333;-89
2022/05/10 01:16:59;;;;;;;;;;;17.00;96.70;17.20;100040.00;;;;348366;27;87495;-88
2022/05/10 01:17:12;;;;;;;;;;;17.00;96.80;17.10;100050.00;;;;348383;27;82539;-88
2022/05/10 01:17:23;;;;;;;;;;;17.00;96.80;17.20;100045.00;;;;349778;27;85628;-89
2022/05/10 01:17:35;;;;;;;;;;;17.00;96.70;17.20;100045.00;;;;348349;27;82652;-88
2022/05/10 01:17:47;;;;;;;;;;;17.00;96.60;17.20;100048.00;;;;348514;27;82438;-88